createdAt,value
2023-02-03T00:01:56.414Z,5.70
2023-02-03T00:05:45.858Z,5.90
2023-02-03T00:09:35.027Z,6.80
2023-02-03T00:13:24.210Z,6.40
2023-02-03T00:17:13.266Z,6.60
2023-02-03T00:21:02.355Z,6.00
2023-02-03T00:24:51.153Z,6.10
2023-02-03T00:28:40.117Z,5.60
2023-02-03T00:32:29.914Z,5.30
2023-02-03T00:36:19.241Z,4.70
2023-02-03T00:40:08.259Z,5.40
2023-02-03T00:43:57.616Z,5.70
2023-02-03T00:47:46.648Z,6.50
2023-02-03T00:51:35.885Z,6.30
2023-02-03T00:55:25.038Z,6.70
2023-02-03T00:59:14.188Z,6.20
2023-02-03T01:03:03.266Z,6.70
2023-02-03T01:06:52.411Z,7.20
2023-02-03T01:10:34.297Z,7.00
2023-02-03T01:14:23.877Z,5.40
2023-02-03T01:18:13.121Z,4.70
2023-02-03T01:22:02.295Z,6.70
2023-02-03T01:25:51.880Z,6.70
2023-02-03T01:29:41.054Z,6.90
2023-02-03T01:33:30.327Z,7.20
2023-02-03T01:37:20.888Z,6.80
2023-02-03T01:41:11.266Z,7.00
2023-02-03T02:00:23.276Z,6.50
2023-02-03T02:04:12.360Z,6.60
2023-02-03T02:08:01.557Z,6.80
2023-02-03T02:15:20.929Z,7.40
2023-02-03T02:19:29.571Z,7.50
2023-02-03T02:35:33.133Z,8.10
2023-02-03T02:39:37.744Z,8.30
2023-02-03T02:43:51.978Z,8.90
2023-02-03T02:55:50.769Z,7.50
2023-02-03T02:59:39.949Z,7.80
2023-02-03T03:03:33.410Z,6.40
2023-02-03T03:07:30.533Z,6.90
2023-02-03T03:19:20.834Z,6.20
2023-02-03T03:23:09.879Z,5.90
2023-02-03T03:27:21.087Z,5.80
2023-02-03T03:39:20.212Z,6.70
2023-02-03T03:43:18.461Z,6.90
2023-02-03T03:47:16.833Z,6.30
2023-02-03T03:51:10.916Z,5.40
2023-02-03T04:03:06.926Z,5.30
2023-02-03T04:06:56.468Z,5.50
2023-02-03T04:10:45.762Z,6.30
2023-02-03T04:14:34.958Z,5.60
2023-02-03T04:18:24.069Z,6.00
2023-02-03T04:22:13.133Z,5.60
2023-02-03T04:37:50.704Z,4.90
2023-02-03T04:41:39.746Z,4.80
2023-02-03T04:45:28.752Z,5.40
2023-02-03T04:49:17.794Z,6.10
2023-02-03T04:53:07.148Z,5.70
2023-02-03T04:56:56.312Z,7.20
2023-02-03T05:00:46.377Z,8.50
2023-02-03T05:04:36.175Z,8.20
2023-02-03T05:08:27.842Z,7.60
2023-02-03T05:12:15.807Z,7.30
2023-02-03T05:16:04.025Z,7.90
2023-02-03T05:19:51.993Z,7.10
2023-02-03T05:31:43.931Z,5.70
2023-02-03T05:35:32.865Z,5.30
2023-02-03T05:39:23.335Z,4.80
2023-02-03T05:46:41.369Z,5.00
2023-02-03T05:50:30.459Z,5.50
2023-02-03T05:54:20.310Z,3.50
2023-02-03T05:58:10.308Z,3.20
2023-02-03T06:02:00.224Z,3.30
2023-02-03T06:05:50.917Z,3.50
2023-02-03T06:25:17.944Z,2.90
2023-02-03T06:29:05.785Z,3.60
2023-02-03T06:32:52.282Z,2.00
2023-02-03T06:36:39.823Z,1.70
2023-02-03T06:40:27.831Z,1.50
2023-02-03T06:44:15.704Z,1.90
2023-02-03T06:51:50.794Z,2.30
2023-02-03T07:11:15.311Z,3.20
2023-02-03T07:15:04.550Z,3.00
2023-02-03T07:18:54.059Z,5.00
2023-02-03T07:26:50.314Z,4.90
2023-02-03T07:30:39.375Z,3.00
2023-02-03T07:34:28.680Z,3.60
2023-02-03T07:38:17.724Z,4.00
2023-02-03T07:42:06.812Z,3.40
2023-02-03T07:45:55.718Z,8.00
2023-02-03T07:49:45.074Z,3.00
2023-02-03T07:59:00.274Z,2.80
2023-02-03T08:02:49.741Z,2.90
2023-02-03T08:06:38.740Z,2.80
2023-02-03T08:10:28.076Z,2.90
2023-02-03T08:14:17.553Z,2.60
2023-02-03T08:18:06.967Z,2.80
2023-02-03T08:37:34.529Z,4.10
2023-02-03T08:41:23.817Z,3.90
2023-02-03T08:45:12.817Z,4.00
2023-02-03T08:49:01.920Z,4.20
2023-02-03T08:53:18.384Z,4.40
2023-02-03T08:57:07.384Z,5.30
2023-02-03T09:00:56.153Z,3.60
2023-02-03T09:04:45.254Z,3.50
2023-02-03T09:08:34.480Z,5.00
2023-02-03T09:12:24.380Z,6.90
2023-02-03T09:16:12.453Z,4.60
2023-02-03T09:43:59.687Z,5.50
2023-02-03T09:47:51.643Z,16.80
2023-02-03T09:52:10.235Z,7.90
2023-02-03T09:56:19.799Z,7.10
2023-02-03T10:00:29.924Z,5.90
2023-02-03T10:17:04.967Z,3.00
2023-02-03T10:20:54.415Z,4.70
2023-02-03T10:24:48.304Z,3.60
2023-02-03T10:40:34.608Z,2.50
2023-02-03T10:44:23.644Z,2.20
2023-02-03T10:48:11.292Z,2.60
2023-02-03T10:52:00.513Z,2.60
2023-02-03T10:56:21.108Z,2.80
2023-02-03T11:00:10.216Z,2.70
2023-02-03T11:04:07.318Z,2.80
2023-02-03T11:08:03.124Z,2.30
2023-02-03T11:24:12.617Z,4.50
2023-02-03T11:28:12.733Z,4.30
2023-02-03T11:32:00.127Z,3.40
2023-02-03T11:35:57.331Z,2.50
2023-02-03T11:39:57.539Z,3.30
2023-02-03T11:43:46.917Z,3.70
2023-02-03T11:59:21.857Z,3.20
2023-02-03T12:03:10.642Z,3.20
2023-02-03T12:15:36.909Z,3.80
2023-02-03T12:19:42.584Z,3.40
2023-02-03T12:23:40.815Z,3.50
2023-02-03T12:27:38.751Z,3.70
2023-02-03T12:40:09.069Z,3.80
2023-02-03T12:44:00.276Z,3.60
2023-02-03T12:56:56.273Z,3.00
2023-02-03T13:00:44.769Z,3.10
2023-02-03T13:13:34.186Z,3.40
2023-02-03T13:17:21.959Z,3.80
2023-02-03T13:21:13.971Z,2.70
2023-02-03T13:29:06.119Z,3.20
2023-02-03T13:40:41.795Z,3.60
2023-02-03T13:44:31.461Z,5.80
2023-02-03T13:48:27.300Z,4.90
2023-02-03T13:52:20.456Z,4.70
2023-02-03T14:04:35.283Z,4.40
2023-02-03T14:20:23.461Z,5.00
2023-02-03T14:24:21.318Z,4.50
2023-02-03T14:36:22.789Z,5.80
2023-02-03T14:40:19.682Z,4.80
2023-02-03T14:44:21.781Z,5.10
2023-02-03T14:56:16.454Z,5.20
2023-02-03T15:00:05.562Z,5.40
2023-02-03T15:04:08.681Z,6.00
2023-02-03T15:07:56.298Z,6.90
2023-02-03T15:16:29.867Z,6.30
2023-02-03T15:20:19.146Z,3.70
2023-02-03T15:24:23.409Z,4.90
2023-02-03T15:28:22.390Z,4.80
2023-02-03T15:40:29.417Z,4.00
2023-02-03T15:44:18.609Z,3.60
2023-02-03T15:59:41.529Z,3.00
2023-02-03T16:03:30.572Z,5.10
2023-02-03T16:07:19.836Z,5.40
2023-02-03T16:11:13.625Z,4.30
2023-02-03T16:23:49.439Z,7.00
2023-02-03T16:27:37.342Z,6.30
2023-02-03T16:43:44.574Z,7.90
2023-02-03T16:47:30.628Z,6.30
2023-02-03T16:51:21.049Z,6.30
2023-02-03T16:58:39.091Z,6.70
2023-02-03T17:14:16.697Z,8.20
2023-02-03T17:18:06.650Z,8.70
2023-02-03T17:22:01.943Z,8.20
2023-02-03T17:25:51.800Z,8.60
2023-02-03T17:29:42.764Z,9.30
2023-02-03T17:33:33.543Z,9.90
2023-02-03T17:37:24.451Z,10.10
2023-02-03T18:05:23.458Z,16.40
2023-02-03T18:09:12.495Z,15.60
2023-02-03T18:13:01.805Z,15.70
2023-02-03T18:16:50.944Z,14.50
2023-02-03T18:20:40.365Z,14.70
2023-02-03T18:24:29.330Z,10.00
2023-02-03T18:28:18.452Z,8.50
2023-02-03T18:32:07.484Z,9.40
2023-02-03T18:35:56.641Z,7.90
2023-02-03T18:39:45.793Z,7.20
2023-02-03T18:43:34.932Z,7.00
2023-02-03T18:47:23.703Z,7.00
2023-02-03T19:06:41.394Z,5.60
2023-02-03T19:10:30.925Z,5.30
2023-02-03T19:14:20.664Z,5.20
2023-02-03T19:18:09.675Z,5.30
2023-02-03T19:21:58.895Z,5.20
2023-02-03T19:25:48.195Z,5.40
2023-02-03T19:29:38.185Z,4.90
2023-02-03T19:33:27.766Z,4.30
2023-02-03T19:37:17.737Z,6.00
2023-02-03T19:52:57.350Z,4.80
2023-02-03T19:56:46.505Z,6.00
2023-02-03T20:00:35.794Z,5.90
2023-02-03T20:04:25.372Z,6.70
2023-02-03T20:08:14.582Z,5.90
2023-02-03T20:12:04.220Z,7.80
2023-02-03T20:15:55.802Z,8.90
2023-02-03T20:19:45.142Z,8.90
2023-02-03T20:23:34.150Z,12.80
2023-02-03T20:27:23.495Z,10.70
2023-02-03T20:31:12.918Z,10.10
2023-02-03T20:35:01.961Z,9.10
2023-02-03T20:38:52.124Z,9.90
2023-02-03T20:42:41.495Z,14.80
2023-02-03T20:46:30.835Z,14.90
2023-02-03T20:50:20.167Z,20.00
2023-02-03T20:54:09.127Z,15.10
2023-02-03T20:57:58.238Z,13.40
2023-02-03T21:01:52.658Z,15.50
2023-02-03T21:17:31.199Z,9.40
2023-02-03T21:21:20.221Z,9.60
2023-02-03T21:25:21.504Z,6.70
2023-02-03T21:29:11.948Z,8.10
2023-02-03T21:45:14.274Z,11.00
2023-02-03T21:49:07.436Z,8.70
2023-02-03T21:52:54.972Z,10.10
2023-02-03T21:56:42.644Z,8.40
2023-02-03T22:12:20.835Z,12.20
2023-02-03T22:16:08.824Z,13.90
2023-02-03T22:19:58.007Z,14.50
2023-02-03T22:23:47.002Z,18.70
2023-02-03T22:27:35.942Z,10.10
2023-02-03T22:31:25.073Z,15.40
2023-02-03T22:35:14.127Z,11.00
2023-02-03T22:39:03.553Z,11.00
2023-02-03T22:42:52.527Z,11.00
2023-02-03T22:46:41.664Z,10.70
2023-02-03T22:50:34.658Z,9.00
2023-02-03T22:54:24.467Z,8.70
2023-02-03T22:58:13.537Z,8.20
2023-02-03T23:02:03.035Z,9.40
2023-02-03T23:05:53.843Z,9.70
2023-02-03T23:09:43.497Z,9.20
2023-02-03T23:13:32.559Z,10.10
2023-02-03T23:17:20.746Z,9.40
2023-02-03T23:21:09.987Z,13.10
2023-02-03T23:40:45.276Z,12.40
2023-02-03T23:44:32.854Z,10.60
2023-02-03T23:48:11.102Z,13.60
2023-02-03T23:51:59.816Z,7.80
2023-02-03T23:55:48.696Z,7.40
2023-02-03T23:59:35.740Z,8.10
